Time;durP1;ratioP1;P1;durP2;ratioP2;P2;SDS_P1;SDS_P2;PMS_P1;PMS_P2;Temp;Humidity;BMP_temperature;BMP_pressure;BME280_temperature;BME280_humidity;BME280_pressure;Samples;Min_cycle;Max_cycle;Signal;HPM_P1;HPM_P2
2021/12/13 00:01:50;;;;;;;6.32;2.97;;;5.50;99.90;;;;;;5094222;28;20168;-62
2021/12/13 00:04:39;;;;;;;6.70;2.83;;;5.60;99.90;;;;;;5093952;28;20186;-63
2021/12/13 00:07:13;;;;;;;6.15;2.60;;;5.60;99.90;;;;;;5092759;28;20180;-62
2021/12/13 00:09:43;;;;;;;5.50;2.83;;;5.60;99.90;;;;;;5093998;28;20180;-63
2021/12/13 00:12:10;;;;;;;5.38;2.83;;;5.60;99.90;;;;;;5093940;28;20246;-61
2021/12/13 00:14:47;;;;;;;4.65;2.88;;;5.60;99.90;;;;;;5093687;28;20594;-62
2021/12/13 00:17:17;;;;;;;3.55;2.60;;;5.60;99.90;;;;;;5093803;28;20630;-62
2021/12/13 00:19:47;;;;;;;7.22;2.85;;;5.60;99.90;;;;;;5093287;28;20712;-62
2021/12/13 00:22:26;;;;;;;8.90;4.90;;;5.60;99.90;;;;;;5092311;28;20191;-62
2021/12/13 00:24:53;;;;;;;10.77;4.43;;;5.60;99.90;;;;;;5093770;28;20183;-62
2021/12/13 00:27:24;;;;;;;8.43;3.60;;;5.70;99.90;;;;;;5091738;28;20558;-62
2021/12/13 00:30:04;;;;;;;7.85;3.25;;;5.70;99.90;;;;;;5094861;28;20179;-62
2021/12/13 00:32:51;;;;;;;8.13;3.30;;;5.70;99.90;;;;;;5099654;28;20260;-63
2021/12/13 00:35:23;;;;;;;3.22;2.40;;;5.80;99.90;;;;;;5093185;28;20183;-62
2021/12/13 00:37:54;;;;;;;3.55;2.45;;;5.90;99.90;;;;;;5092222;28;20181;-62
2021/12/13 00:40:23;;;;;;;3.67;2.58;;;5.90;99.90;;;;;;5092528;28;20662;-63
2021/12/13 00:42:59;;;;;;;3.83;2.88;;;5.90;99.90;;;;;;5093307;28;20188;-62
2021/12/13 00:45:29;;;;;;;5.47;3.03;;;5.90;99.90;;;;;;5093217;28;20266;-63
2021/12/13 00:47:58;;;;;;;5.95;3.30;;;6.00;99.90;;;;;;5093191;28;20180;-63
2021/12/13 00:50:44;;;;;;;6.05;3.33;;;6.00;99.90;;;;;;5092787;28;20180;-62
2021/12/13 00:53:15;;;;;;;8.10;3.67;;;6.10;99.90;;;;;;5092875;28;20204;-62
2021/12/13 00:55:42;;;;;;;6.15;2.78;;;6.10;99.90;;;;;;5092275;28;20234;-63
2021/12/13 00:58:12;;;;;;;3.03;2.25;;;6.10;99.90;;;;;;5092946;28;20184;-62
2021/12/13 01:00:43;;;;;;;4.18;2.65;;;6.10;99.90;;;;;;5091912;28;20188;-62
2021/12/13 01:03:32;;;;;;;9.63;4.53;;;6.20;99.90;;;;;;5092682;28;20202;-63
2021/12/13 01:06:36;;;;;;;5.10;2.58;;;6.10;99.90;;;;;;5092878;28;20192;-63
2021/12/13 01:09:29;;;;;;;15.65;5.35;;;6.10;99.90;;;;;;5092902;28;20183;-62
2021/12/13 01:11:59;;;;;;;8.55;4.18;;;6.10;99.90;;;;;;5092601;28;20701;-62
2021/12/13 01:14:27;;;;;;;11.73;5.32;;;6.00;99.90;;;;;;5092641;28;20187;-62
2021/12/13 01:17:05;;;;;;;5.72;3.00;;;6.00;99.90;;;;;;5091307;28;20179;-62
2021/12/13 01:22:47;;;;;;;4.63;2.60;;;6.00;99.90;;;;;;5092637;28;20222;-62
2021/12/13 01:25:38;;;;;;;5.30;2.80;;;6.00;99.90;;;;;;5092557;28;20255;-63
2021/12/13 01:28:10;;;;;;;3.75;2.20;;;5.90;99.90;;;;;;5071091;28;20179;-62
2021/12/13 01:30:42;;;;;;;4.60;2.65;;;5.90;99.90;;;;;;5070323;28;20177;-62
2021/12/13 01:33:11;;;;;;;5.43;2.65;;;6.00;99.90;;;;;;5070996;28;20534;-62
2021/12/13 01:35:42;;;;;;;2.78;2.10;;;6.00;99.90;;;;;;5087338;28;20216;-63
2021/12/13 01:38:15;;;;;;;5.80;3.13;;;6.00;99.90;;;;;;5072245;28;20180;-62
2021/12/13 01:40:45;;;;;;;7.85;4.60;;;6.00;99.90;;;;;;5072163;28;20172;-62
2021/12/13 01:43:33;;;;;;;4.50;2.70;;;6.10;99.90;;;;;;5077656;28;20184;-62
2021/12/13 01:46:00;;;;;;;6.40;3.00;;;6.10;99.90;;;;;;5090010;28;20184;-65
2021/12/13 01:48:34;;;;;;;4.68;2.47;;;6.10;99.90;;;;;;5097046;28;20193;-63
2021/12/13 01:51:05;;;;;;;3.08;2.20;;;6.10;99.90;;;;;;5095465;28;20575;-63
2021/12/13 01:53:46;;;;;;;3.80;2.40;;;6.00;99.90;;;;;;5090613;28;20180;-63
2021/12/13 01:56:43;;;;;;;2.70;1.95;;;6.00;99.90;;;;;;5090494;28;20268;-62
2021/12/13 02:02:40;;;;;;;3.90;2.72;;;6.00;99.90;;;;;;5071886;28;20195;-62
2021/12/13 02:05:32;;;;;;;4.72;3.15;;;5.90;99.90;;;;;;5069670;28;20269;-62
2021/12/13 02:08:08;;;;;;;5.53;2.70;;;6.00;99.90;;;;;;5087027;28;20180;-63
2021/12/13 02:10:41;;;;;;;6.82;2.97;;;5.90;99.90;;;;;;5085730;28;20187;-63
2021/12/13 02:13:22;;;;;;;3.50;2.42;;;6.00;99.90;;;;;;5090507;28;20202;-63
2021/12/13 02:18:39;;;;;;;4.55;2.70;;;6.10;99.90;;;;;;5087654;28;20195;-62
2021/12/13 02:21:18;;;;;;;3.03;2.35;;;6.10;99.90;;;;;;5091147;28;20192;-62
2021/12/13 02:23:47;;;;;;;5.07;2.47;;;6.10;99.90;;;;;;5090826;28;20184;-63
2021/12/13 02:26:14;;;;;;;3.90;2.38;;;6.10;99.90;;;;;;5088777;28;20249;-63
2021/12/13 02:28:42;;;;;;;4.75;2.47;;;6.20;99.90;;;;;;5091218;28;20184;-63
2021/12/13 02:31:21;;;;;;;4.28;2.70;;;6.10;99.90;;;;;;5089892;28;20211;-63
2021/12/13 02:34:06;;;;;;;4.80;2.80;;;6.00;99.90;;;;;;5091776;28;20182;-63
2021/12/13 02:36:37;;;;;;;4.40;2.60;;;6.00;99.90;;;;;;5091424;28;20662;-64
2021/12/13 02:39:14;;;;;;;4.88;2.80;;;5.90;99.90;;;;;;5091479;28;20206;-63
2021/12/13 02:41:41;;;;;;;3.55;2.63;;;5.90;99.90;;;;;;5074813;28;20172;-63
2021/12/13 02:44:22;;;;;;;4.90;2.38;;;6.00;99.90;;;;;;5094977;28;20206;-62
2021/12/13 02:46:50;;;;;;;6.22;3.25;;;6.00;99.90;;;;;;5095405;28;20180;-63
2021/12/13 02:49:17;;;;;;;7.80;3.85;;;6.00;99.90;;;;;;5095378;28;20188;-63
2021/12/13 02:51:52;;;;;;;6.82;3.55;;;6.00;99.90;;;;;;5094626;28;20204;-63
2021/12/13 02:54:45;;;;;;;5.25;2.88;;;6.00;99.90;;;;;;5075132;28;20191;-62
2021/12/13 02:57:32;;;;;;;4.28;2.58;;;6.00;99.90;;;;;;5086697;28;20257;-62
2021/12/13 03:00:10;;;;;;;6.82;3.05;;;5.90;99.90;;;;;;5095114;28;20202;-62
2021/12/13 03:02:41;;;;;;;4.68;3.00;;;5.90;99.90;;;;;;5094372;28;20255;-63
2021/12/13 03:05:14;;;;;;;7.32;3.42;;;5.80;99.90;;;;;;5082219;28;20175;-62
2021/12/13 03:07:43;;;;;;;6.72;3.50;;;5.80;99.90;;;;;;5079464;28;20176;-62
2021/12/13 03:10:15;;;;;;;7.38;3.47;;;5.70;99.90;;;;;;5094584;28;20172;-63
2021/12/13 03:12:41;;;;;;;7.63;3.85;;;5.70;99.90;;;;;;5094801;28;20247;-63
2021/12/13 03:15:12;;;;;;;5.97;3.00;;;5.70;99.90;;;;;;5094762;28;20222;-63
2021/12/13 03:17:47;;;;;;;4.80;2.75;;;5.70;99.90;;;;;;5094608;28;20211;-63
2021/12/13 03:20:28;;;;;;;4.38;2.75;;;5.70;99.90;;;;;;5091921;28;20237;-63
2021/12/13 03:23:13;;;;;;;8.25;3.70;;;5.70;99.90;;;;;;5094184;28;20689;-64
2021/12/13 03:25:39;;;;;;;4.38;2.88;;;5.80;99.90;;;;;;5083561;28;20196;-63
2021/12/13 03:28:23;;;;;;;6.55;3.00;;;5.80;99.90;;;;;;5094211;28;20182;-63
2021/12/13 03:30:57;;;;;;;6.07;3.22;;;5.80;99.90;;;;;;5094323;28;20207;-64
2021/12/13 03:33:44;;;;;;;5.25;2.78;;;5.80;99.90;;;;;;5094384;28;20270;-63
2021/12/13 03:36:17;;;;;;;4.90;2.65;;;5.90;99.90;;;;;;5094431;28;20176;-63
2021/12/13 03:38:47;;;;;;;5.20;2.85;;;5.90;99.90;;;;;;5092970;28;20179;-64
2021/12/13 03:41:20;;;;;;;4.22;2.95;;;5.90;99.90;;;;;;5092790;28;20226;-63
2021/12/13 03:43:52;;;;;;;7.00;2.90;;;5.90;99.90;;;;;;5094130;28;20188;-62
2021/12/13 03:46:22;;;;;;;5.15;2.65;;;5.90;99.90;;;;;;5093929;28;20168;-63
2021/12/13 03:48:49;;;;;;;3.75;2.38;;;5.80;99.90;;;;;;5092878;28;20180;-63
2021/12/13 03:51:18;;;;;;;3.42;2.28;;;5.80;99.90;;;;;;5092663;28;20215;-63
2021/12/13 03:53:47;;;;;;;7.47;2.53;;;5.80;99.90;;;;;;5092202;28;20208;-63
2021/12/13 03:56:15;;;;;;;6.78;2.55;;;5.80;99.90;;;;;;5093422;28;20222;-63
2021/12/13 03:58:50;;;;;;;5.90;2.88;;;5.70;99.90;;;;;;5094033;28;20263;-63
2021/12/13 04:01:21;;;;;;;5.50;2.53;;;5.80;99.90;;;;;;5091906;28;20229;-63
2021/12/13 04:03:49;;;;;;;3.45;2.40;;;5.80;99.90;;;;;;5093637;28;20268;-63
2021/12/13 04:06:18;;;;;;;4.05;2.50;;;5.80;99.90;;;;;;5093824;28;20188;-63
2021/12/13 04:08:48;;;;;;;5.25;2.45;;;5.70;99.90;;;;;;5094121;28;20176;-63
2021/12/13 04:11:14;;;;;;;4.45;2.42;;;5.70;99.90;;;;;;5091995;28;20204;-63
2021/12/13 04:13:53;;;;;;;3.95;2.38;;;5.80;99.90;;;;;;5075252;28;20188;-63
2021/12/13 04:16:34;;;;;;;3.88;2.55;;;5.80;99.90;;;;;;5093228;28;20175;-62
2021/12/13 04:19:09;;;;;;;4.70;3.08;;;5.80;99.90;;;;;;5090370;28;20179;-62
2021/12/13 04:22:03;;;;;;;5.95;3.05;;;5.80;99.90;;;;;;5092180;28;20188;-63
2021/12/13 04:24:35;;;;;;;4.97;3.08;;;5.80;99.90;;;;;;5093382;28;20191;-63
2021/12/13 04:27:09;;;;;;;6.20;2.97;;;5.70;99.90;;;;;;5093363;28;20181;-63
2021/12/13 04:29:41;;;;;;;4.55;2.80;;;5.70;99.90;;;;;;5092280;28;20432;-62
2021/12/13 04:32:21;;;;;;;5.07;2.75;;;5.70;99.90;;;;;;5078413;28;20238;-64
2021/12/13 04:34:52;;;;;;;5.78;3.10;;;5.70;99.90;;;;;;5092389;28;20225;-62
2021/12/13 04:37:21;;;;;;;5.07;2.60;;;5.80;99.90;;;;;;5092869;28;20193;-63
2021/12/13 04:39:52;;;;;;;5.22;2.90;;;5.80;99.90;;;;;;5090644;28;20176;-63
2021/12/13 04:42:21;;;;;;;4.57;2.63;;;5.80;99.90;;;;;;5092066;28;20191;-62
2021/12/13 04:44:52;;;;;;;5.63;2.50;;;5.80;99.90;;;;;;5092468;28;20661;-62
2021/12/13 04:47:28;;;;;;;4.25;2.88;;;5.90;99.90;;;;;;5090635;28;20267;-62
2021/12/13 04:50:10;;;;;;;6.05;2.45;;;5.90;99.90;;;;;;5077849;28;20179;-62
2021/12/13 04:52:36;;;;;;;4.10;2.72;;;5.90;99.90;;;;;;5092643;28;20219;-63
2021/12/13 04:55:09;;;;;;;4.70;2.80;;;6.00;99.90;;;;;;5091508;28;20180;-62
2021/12/13 04:57:34;;;;;;;5.85;2.90;;;6.00;99.90;;;;;;5090732;28;20227;-62
2021/12/13 05:00:07;;;;;;;5.13;2.88;;;6.00;99.90;;;;;;5070610;28;20222;-62
2021/12/13 05:02:33;;;;;;;3.92;2.50;;;6.00;99.90;;;;;;5080280;28;20173;-64
2021/12/13 05:05:03;;;;;;;6.50;2.65;;;6.00;99.90;;;;;;5091185;28;20187;-63
2021/12/13 05:07:31;;;;;;;5.13;2.90;;;5.90;99.90;;;;;;5091626;28;20177;-63
2021/12/13 05:09:57;;;;;;;3.28;2.58;;;5.90;99.90;;;;;;5090477;28;20179;-59
2021/12/13 05:12:28;;;;;;;5.35;3.60;;;5.80;99.90;;;;;;5090153;28;20313;-62
2021/12/13 05:14:58;;;;;;;6.50;3.00;;;5.80;99.90;;;;;;5091953;28;20183;-63
2021/12/13 05:17:47;;;;;;;4.80;3.05;;;5.80;99.90;;;;;;5092388;28;20192;-64
2021/12/13 05:20:18;;;;;;;4.18;3.33;;;5.80;99.90;;;;;;5091899;28;20263;-62
2021/12/13 05:22:57;;;;;;;5.78;2.97;;;5.70;99.90;;;;;;5092274;28;20663;-61
2021/12/13 05:25:41;;;;;;;4.82;3.45;;;5.70;99.90;;;;;;5091738;28;20175;-63
2021/12/13 05:28:17;;;;;;;8.00;3.72;;;5.70;99.90;;;;;;5084250;28;20266;-64
2021/12/13 05:30:57;;;;;;;6.82;3.95;;;5.60;99.90;;;;;;5091061;28;20184;-61
2021/12/13 05:33:25;;;;;;;9.52;6.53;;;5.60;99.90;;;;;;5091455;28;20575;-61
2021/12/13 05:35:54;;;;;;;9.15;7.00;;;5.60;99.90;;;;;;5092179;28;20593;-61
2021/12/13 05:38:33;;;;;;;12.45;8.35;;;5.50;99.90;;;;;;5092087;28;20190;-62
2021/12/13 05:41:03;;;;;;;9.30;6.90;;;5.50;99.90;;;;;;5092245;28;20221;-61
2021/12/13 05:43:31;;;;;;;10.07;6.95;;;5.50;99.90;;;;;;5092239;28;20514;-61
2021/12/13 05:46:04;;;;;;;7.25;6.05;;;5.50;99.90;;;;;;5092302;28;20220;-61
2021/12/13 05:48:38;;;;;;;6.70;5.55;;;5.50;99.90;;;;;;5092110;28;20708;-61
2021/12/13 05:51:35;;;;;;;7.57;4.97;;;5.50;99.90;;;;;;5092198;28;20195;-61
2021/12/13 05:54:07;;;;;;;5.20;4.50;;;5.40;99.90;;;;;;5088814;28;20654;-61
2021/12/13 05:56:43;;;;;;;5.38;3.83;;;5.40;99.90;;;;;;5091923;28;20762;-61
2021/12/13 05:59:34;;;;;;;7.50;5.57;;;5.40;99.90;;;;;;5092188;28;20205;-61
2021/12/13 06:02:16;;;;;;;6.95;4.00;;;5.40;99.90;;;;;;5092071;28;20251;-61
2021/12/13 06:05:05;;;;;;;6.35;4.25;;;5.40;99.90;;;;;;5092058;28;20200;-61
2021/12/13 06:07:35;;;;;;;7.57;4.30;;;5.40;99.90;;;;;;5091973;28;20225;-61
2021/12/13 06:10:15;;;;;;;8.05;4.20;;;5.40;99.90;;;;;;5092110;28;20237;-61
2021/12/13 06:12:57;;;;;;;8.50;4.78;;;5.40;99.90;;;;;;5091993;28;20219;-61
2021/12/13 06:15:26;;;;;;;6.15;4.10;;;5.50;99.90;;;;;;5092026;28;20180;-61
2021/12/13 06:18:17;;;;;;;6.30;4.00;;;5.50;99.90;;;;;;5095262;28;20582;-61
2021/12/13 06:21:22;;;;;;;6.25;3.78;;;5.50;99.90;;;;;;5098754;28;20168;-61
2021/12/13 06:23:48;;;;;;;6.93;4.15;;;5.50;99.90;;;;;;5098669;28;20320;-61
2021/12/13 06:26:14;;;;;;;6.90;4.30;;;5.50;99.90;;;;;;5098399;28;20263;-61
2021/12/13 06:28:52;;;;;;;13.77;6.72;;;5.50;99.90;;;;;;5098457;28;20171;-61
2021/12/13 06:31:20;;;;;;;12.93;7.50;;;5.50;99.90;;;;;;5098390;28;20214;-61
2021/12/13 06:33:58;;;;;;;13.50;6.90;;;5.50;99.90;;;;;;5097284;28;20179;-61
2021/12/13 06:36:32;;;;;;;10.02;6.65;;;5.50;99.90;;;;;;5098562;28;20237;-61
2021/12/13 06:39:07;;;;;;;14.10;7.68;;;5.50;99.90;;;;;;5098268;28;20306;-61
2021/12/13 06:41:39;;;;;;;24.88;9.77;;;5.50;99.90;;;;;;5098246;28;20172;-61
2021/12/13 06:44:26;;;;;;;19.27;10.43;;;5.50;99.90;;;;;;5098323;28;20255;-61
2021/12/13 06:46:59;;;;;;;19.75;9.23;;;5.50;99.90;;;;;;5098534;28;20172;-61
2021/12/13 06:49:38;;;;;;;18.33;9.57;;;5.60;99.90;;;;;;5098325;28;20543;-61
2021/12/13 06:52:37;;;;;;;17.15;9.38;;;5.60;99.90;;;;;;5098392;28;20218;-61
2021/12/13 06:55:08;;;;;;;10.70;6.40;;;5.60;99.90;;;;;;5094456;28;20192;-61
2021/12/13 06:57:38;;;;;;;12.55;6.45;;;5.60;99.90;;;;;;5098073;28;20223;-61
2021/12/13 07:00:09;;;;;;;12.13;6.00;;;5.60;99.90;;;;;;5098424;28;20179;-62
2021/12/13 07:02:52;;;;;;;9.13;5.55;;;5.60;99.90;;;;;;5096751;28;20187;-62
2021/12/13 07:05:44;;;;;;;8.23;5.03;;;5.60;99.90;;;;;;5098184;28;20206;-61
2021/12/13 07:08:19;;;;;;;7.95;4.38;;;5.60;99.90;;;;;;5089812;28;20267;-61
2021/12/13 07:10:52;;;;;;;7.15;3.90;;;5.70;99.90;;;;;;5098078;28;20225;-61
2021/12/13 07:13:38;;;;;;;8.40;4.20;;;5.70;99.90;;;;;;5098050;28;20176;-61
2021/12/13 07:16:12;;;;;;;5.32;3.75;;;5.70;99.90;;;;;;5098149;28;20172;-61
2021/12/13 07:18:47;;;;;;;6.28;4.30;;;5.70;99.90;;;;;;5098004;28;20645;-61
2021/12/13 07:21:21;;;;;;;6.05;3.85;;;5.70;99.90;;;;;;5097980;28;20578;-61
2021/12/13 07:24:07;;;;;;;8.02;4.15;;;5.80;99.90;;;;;;5097995;28;20176;-61
2021/12/13 07:26:49;;;;;;;5.75;4.03;;;5.80;99.90;;;;;;5097670;28;20180;-61
2021/12/13 07:29:38;;;;;;;5.10;3.78;;;5.80;99.90;;;;;;5095216;28;20172;-61
2021/12/13 07:32:13;;;;;;;6.75;3.47;;;5.80;99.90;;;;;;5094793;28;20225;-61
2021/12/13 07:35:07;;;;;;;9.80;4.10;;;5.80;99.90;;;;;;5094760;28;20618;-61
2021/12/13 07:37:54;;;;;;;6.57;3.80;;;5.80;99.90;;;;;;5072004;28;20188;-62
2021/12/13 07:40:35;;;;;;;8.30;4.07;;;5.80;99.90;;;;;;5094680;28;20172;-61
2021/12/13 07:43:03;;;;;;;6.40;4.53;;;5.80;99.90;;;;;;5093248;28;20179;-61
2021/12/13 07:45:39;;;;;;;8.82;5.75;;;5.80;99.90;;;;;;5094537;28;20172;-61
2021/12/13 07:48:09;;;;;;;12.00;6.72;;;5.90;99.90;;;;;;5094543;28;20221;-61
2021/12/13 07:50:36;;;;;;;13.43;7.45;;;5.90;99.90;;;;;;5094404;28;20176;-61
2021/12/13 07:53:06;;;;;;;14.50;8.30;;;6.00;99.90;;;;;;5094404;28;20249;-61
2021/12/13 07:55:32;;;;;;;13.65;8.45;;;6.00;99.90;;;;;;5094053;28;20172;-62
2021/12/13 07:58:03;;;;;;;19.38;9.38;;;6.10;99.90;;;;;;5094439;28;20223;-61
2021/12/13 08:00:38;;;;;;;22.40;13.02;;;6.10;99.90;;;;;;5094275;28;20176;-61
2021/12/13 08:03:10;;;;;;;27.67;15.38;;;6.10;99.90;;;;;;5094296;28;20195;-61
2021/12/13 08:05:46;;;;;;;23.05;11.93;;;6.20;99.90;;;;;;5094060;28;20604;-61
2021/12/13 08:08:27;;;;;;;22.88;11.45;;;6.20;99.90;;;;;;5094177;28;20619;-61
2021/12/13 08:10:58;;;;;;;13.20;7.35;;;6.20;99.90;;;;;;5094200;28;20183;-61
2021/12/13 08:13:30;;;;;;;11.77;6.20;;;6.30;99.90;;;;;;5094010;28;20192;-61
2021/12/13 08:16:04;;;;;;;8.85;6.00;;;6.30;99.90;;;;;;5093995;28;20180;-61
2021/12/13 08:18:33;;;;;;;10.27;5.97;;;6.40;99.90;;;;;;5093894;28;20187;-61
2021/12/13 08:21:03;;;;;;;11.88;6.18;;;6.40;99.90;;;;;;5093855;28;20263;-61
2021/12/13 08:23:39;;;;;;;11.02;6.50;;;6.40;99.90;;;;;;5093661;28;20701;-61
2021/12/13 08:26:13;;;;;;;14.93;9.13;;;6.50;99.90;;;;;;5093667;28;20191;-61
2021/12/13 08:28:44;;;;;;;16.38;10.25;;;6.50;99.90;;;;;;5093666;28;20246;-61
2021/12/13 08:31:20;;;;;;;19.10;11.25;;;6.60;99.90;;;;;;5093633;28;20241;-61
2021/12/13 08:33:54;;;;;;;19.05;10.48;;;6.60;99.90;;;;;;5093636;28;20183;-61
2021/12/13 08:36:28;;;;;;;17.10;10.30;;;6.60;99.90;;;;;;5093534;28;20172;-61
2021/12/13 08:39:00;;;;;;;10.70;7.28;;;6.70;99.90;;;;;;5093561;28;20175;-61
2021/12/13 08:41:50;;;;;;;11.10;5.90;;;6.80;99.90;;;;;;5093144;28;20176;-61
2021/12/13 08:44:19;;;;;;;9.20;4.93;;;6.90;99.90;;;;;;5093197;28;20671;-61
2021/12/13 08:46:56;;;;;;;9.55;4.65;;;7.00;99.90;;;;;;5093418;28;20176;-61
2021/12/13 08:49:30;;;;;;;11.15;5.57;;;7.10;99.90;;;;;;5093247;28;20168;-61
2021/12/13 08:52:13;;;;;;;9.07;5.10;;;7.10;99.90;;;;;;5093213;28;20215;-61
2021/12/13 08:55:20;;;;;;;8.45;4.57;;;7.20;99.90;;;;;;5093123;28;20274;-61
2021/12/13 08:57:46;;;;;;;6.47;4.40;;;7.30;99.90;;;;;;5089947;28;20196;-61
2021/12/13 09:00:27;;;;;;;6.88;3.97;;;7.40;99.90;;;;;;5091776;28;20232;-61
2021/12/13 09:02:53;;;;;;;7.03;3.67;;;7.40;99.90;;;;;;5093070;28;20184;-61
2021/12/13 09:05:41;;;;;;;8.90;3.92;;;7.50;99.90;;;;;;5092861;28;20655;-61
2021/12/13 09:08:13;;;;;;;6.50;3.72;;;7.70;99.90;;;;;;5093062;28;20245;-61
2021/12/13 09:10:54;;;;;;;6.57;3.15;;;7.80;99.90;;;;;;5092928;28;20567;-61
2021/12/13 09:13:36;;;;;;;6.78;3.60;;;7.90;99.90;;;;;;5092678;28;20218;-62
2021/12/13 09:16:02;;;;;;;4.55;3.10;;;8.00;99.90;;;;;;5092862;28;20163;-61
2021/12/13 09:18:28;;;;;;;24.63;3.67;;;8.00;99.90;;;;;;5092746;28;20260;-61
2021/12/13 09:20:56;;;;;;;20.23;4.72;;;8.00;99.90;;;;;;5092728;28;20204;-61
2021/12/13 09:23:27;;;;;;;17.58;4.25;;;8.10;99.90;;;;;;5091387;28;20176;-61
2021/12/13 09:26:15;;;;;;;23.17;5.70;;;8.10;99.90;;;;;;5092246;28;20648;-61
2021/12/13 09:28:57;;;;;;;20.33;4.88;;;8.20;99.90;;;;;;5092603;28;20221;-61
2021/12/13 09:31:28;;;;;;;16.23;4.20;;;8.30;99.90;;;;;;5092392;28;20228;-61
2021/12/13 09:33:58;;;;;;;30.00;6.78;;;8.40;99.90;;;;;;5092384;28;20172;-62
2021/12/13 09:36:29;;;;;;;35.13;5.47;;;8.50;99.90;;;;;;5092473;28;20180;-62
2021/12/13 09:39:06;;;;;;;24.27;4.20;;;8.60;99.90;;;;;;5092368;28;20180;-61
2021/12/13 09:41:37;;;;;;;6.38;2.72;;;8.60;99.90;;;;;;5092329;28;20573;-61
2021/12/13 09:44:08;;;;;;;5.82;3.28;;;8.70;99.90;;;;;;5092308;28;20258;-61
2021/12/13 09:46:43;;;;;;;7.50;3.00;;;8.70;99.90;;;;;;5092096;28;20184;-61
2021/12/13 09:49:11;;;;;;;15.93;3.28;;;8.80;99.90;;;;;;5092361;28;20262;-61
2021/12/13 09:51:49;;;;;;;9.43;4.38;;;8.90;99.90;;;;;;5091657;28;20242;-62
2021/12/13 09:54:19;;;;;;;8.43;3.45;;;9.00;99.90;;;;;;5091904;28;20202;-62
2021/12/13 09:56:49;;;;;;;9.23;3.45;;;9.10;99.90;;;;;;5092077;28;20588;-62
2021/12/13 09:59:20;;;;;;;11.75;5.38;;;9.20;99.90;;;;;;5092434;28;20582;-62
2021/12/13 10:01:50;;;;;;;11.32;4.32;;;9.40;99.90;;;;;;5092205;28;20659;-60
2021/12/13 10:04:25;;;;;;;11.75;4.45;;;9.60;99.90;;;;;;5090595;28;20179;-60
2021/12/13 10:06:56;;;;;;;7.85;3.50;;;9.80;99.90;;;;;;5092066;28;20214;-59
2021/12/13 10:09:26;;;;;;;4.38;3.10;;;9.90;99.90;;;;;;5091999;28;20176;-60
2021/12/13 10:12:01;;;;;;;4.50;2.80;;;10.00;99.90;;;;;;5091914;28;20239;-60
2021/12/13 10:14:32;;;;;;;4.63;3.20;;;10.20;99.90;;;;;;5092002;28;20248;-62
2021/12/13 10:16:58;;;;;;;5.22;2.72;;;10.20;99.90;;;;;;5092052;28;20549;-61
2021/12/13 10:19:49;;;;;;;5.78;2.83;;;10.20;99.90;;;;;;5091867;28;20164;-61
2021/12/13 10:22:17;;;;;;;6.95;3.20;;;10.20;99.90;;;;;;5090699;28;20176;-62
2021/12/13 10:24:53;;;;;;;4.15;2.80;;;10.20;99.90;;;;;;5091862;28;20530;-61
2021/12/13 10:27:19;;;;;;;4.43;2.97;;;10.10;99.90;;;;;;5091628;28;20536;-62
2021/12/13 10:29:49;;;;;;;8.63;3.40;;;10.10;99.90;;;;;;5091876;28;20169;-61
2021/12/13 10:32:24;;;;;;;6.72;3.63;;;10.10;99.90;;;;;;5091655;28;20203;-62
2021/12/13 10:35:01;;;;;;;7.60;4.28;;;10.10;99.90;;;;;;5091851;28;20183;-62
2021/12/13 10:37:33;;;;;;;4.97;3.10;;;10.10;99.90;;;;;;5091744;28;20171;-62
2021/12/13 10:40:10;;;;;;;6.38;2.90;;;10.20;99.90;;;;;;5091828;28;20168;-61
2021/12/13 10:42:50;;;;;;;3.17;2.50;;;10.20;99.90;;;;;;5090242;28;20213;-62
2021/12/13 10:45:28;;;;;;;5.45;3.17;;;10.20;99.90;;;;;;5091509;28;20183;-62
2021/12/13 10:47:57;;;;;;;5.68;2.90;;;10.20;99.90;;;;;;5091496;28;20195;-61
2021/12/13 10:50:31;;;;;;;4.55;3.20;;;10.30;99.90;;;;;;5091358;28;20176;-62
2021/12/13 10:52:58;;;;;;;5.72;2.92;;;10.40;99.90;;;;;;5091472;28;20311;-62
2021/12/13 10:55:32;;;;;;;4.28;2.90;;;10.40;99.90;;;;;;5090071;28;20532;-62
2021/12/13 10:57:58;;;;;;;4.78;3.08;;;10.50;99.90;;;;;;5091403;28;20544;-62
2021/12/13 11:00:28;;;;;;;5.18;3.08;;;10.60;99.90;;;;;;5091438;28;20631;-62
2021/12/13 11:03:01;;;;;;;5.18;3.42;;;10.60;99.90;;;;;;5091506;28;20186;-61
2021/12/13 11:05:28;;;;;;;4.80;3.35;;;10.70;99.90;;;;;;5095305;28;20662;-62
2021/12/13 11:07:56;;;;;;;7.90;3.05;;;10.80;99.90;;;;;;5095224;28;20165;-62
2021/12/13 11:10:27;;;;;;;7.38;3.83;;;10.80;99.90;;;;;;5095213;28;20267;-62
2021/12/13 11:12:56;;;;;;;9.27;4.18;;;10.80;99.90;;;;;;5095246;28;20268;-62
2021/12/13 11:15:35;;;;;;;6.55;3.38;;;10.90;99.90;;;;;;5095146;28;20180;-62
2021/12/13 11:18:04;;;;;;;8.27;3.88;;;10.90;99.90;;;;;;5095328;28;20238;-62
2021/12/13 11:20:41;;;;;;;7.25;3.90;;;10.90;99.90;;;;;;5095002;28;20251;-62
2021/12/13 11:23:08;;;;;;;5.22;3.10;;;10.90;99.90;;;;;;5095136;28;20172;-62
2021/12/13 11:25:39;;;;;;;8.45;4.85;;;10.80;99.90;;;;;;5093250;28;20528;-62
2021/12/13 11:28:05;;;;;;;6.90;3.75;;;10.80;99.90;;;;;;5095061;28;20168;-62
2021/12/13 11:30:34;;;;;;;5.18;3.80;;;10.80;99.90;;;;;;5094775;28;20662;-62
2021/12/13 11:32:59;;;;;;;7.35;4.15;;;10.80;99.90;;;;;;5094870;28;20644;-61
2021/12/13 11:36:04;;;;;;;6.55;4.45;;;10.80;99.90;;;;;;5093428;28;20195;-62
2021/12/13 11:38:49;;;;;;;6.38;3.55;;;10.90;99.90;;;;;;5094713;28;20229;-62
2021/12/13 11:41:37;;;;;;;3.50;2.83;;;10.80;99.90;;;;;;5094645;28;20624;-62
2021/12/13 11:44:26;;;;;;;5.18;4.15;;;10.70;99.90;;;;;;5094739;28;20627;-62
2021/12/13 11:47:19;;;;;;;5.97;3.47;;;10.60;99.90;;;;;;5094700;28;20208;-62
2021/12/13 11:50:22;;;;;;;4.55;3.63;;;10.60;99.90;;;;;;5094652;28;20175;-62
2021/12/13 11:53:36;;;;;;;6.93;3.83;;;10.70;99.90;;;;;;5094369;28;20211;-62
2021/12/13 11:56:25;;;;;;;7.93;4.53;;;10.60;99.90;;;;;;5094293;28;20220;-61
2021/12/13 11:59:19;;;;;;;7.60;4.88;;;10.60;99.90;;;;;;5086059;28;20180;-61
2021/12/13 12:02:23;;;;;;;7.30;4.50;;;10.50;99.90;;;;;;5094368;28;20642;-61
2021/12/13 12:05:26;;;;;;;9.45;5.72;;;10.40;99.90;;;;;;5094303;28;20176;-61
2021/12/13 12:08:00;;;;;;;7.43;4.70;;;10.30;99.90;;;;;;5094118;28;20183;-61
2021/12/13 12:10:25;;;;;;;8.23;5.40;;;10.30;99.90;;;;;;5092830;28;20179;-62
2021/12/13 12:13:09;;;;;;;7.05;4.80;;;10.20;99.90;;;;;;5094008;28;20269;-61
2021/12/13 12:15:39;;;;;;;6.13;4.53;;;10.30;99.90;;;;;;5093136;28;20665;-61
2021/12/13 12:18:07;;;;;;;6.53;4.50;;;10.30;99.90;;;;;;5094022;28;20571;-61
2021/12/13 12:20:39;;;;;;;7.40;4.97;;;10.30;99.90;;;;;;5093949;28;20195;-62
2021/12/13 12:23:08;;;;;;;9.10;5.50;;;10.30;99.90;;;;;;5093829;28;20698;-62
2021/12/13 12:25:37;;;;;;;10.65;4.93;;;10.30;99.90;;;;;;5093521;28;20196;-61
2021/12/13 12:28:11;;;;;;;7.68;4.75;;;10.40;99.90;;;;;;5093902;28;20593;-62
2021/12/13 12:30:42;;;;;;;5.80;4.22;;;10.40;99.90;;;;;;5093584;28;20173;-62
2021/12/13 12:33:10;;;;;;;8.68;4.75;;;10.30;99.90;;;;;;5092369;28;20251;-61
2021/12/13 12:35:47;;;;;;;11.48;6.97;;;10.30;99.90;;;;;;5093349;28;20184;-62
2021/12/13 12:38:19;;;;;;;6.85;5.15;;;10.30;99.90;;;;;;5093516;28;20175;-61
2021/12/13 12:41:06;;;;;;;7.15;4.10;;;10.30;99.90;;;;;;5093344;28;20504;-61
2021/12/13 12:43:36;;;;;;;5.65;3.10;;;10.20;99.90;;;;;;5093207;28;20693;-61
2021/12/13 12:46:06;;;;;;;7.50;3.95;;;10.30;99.90;;;;;;5093376;28;20515;-62
2021/12/13 12:48:43;;;;;;;6.28;3.60;;;10.20;99.90;;;;;;5093420;28;20173;-61
2021/12/13 12:51:19;;;;;;;4.55;3.63;;;10.20;99.90;;;;;;5093160;28;20708;-61
2021/12/13 12:53:50;;;;;;;6.18;3.58;;;10.20;99.90;;;;;;5093352;28;20180;-61
2021/12/13 12:56:25;;;;;;;5.13;3.50;;;10.20;99.90;;;;;;5093012;28;20247;-62
2021/12/13 12:59:12;;;;;;;10.82;7.45;;;10.20;99.90;;;;;;5093153;28;20258;-61
2021/12/13 13:01:39;;;;;;;9.43;4.65;;;10.20;99.90;;;;;;5092947;28;20180;-61
2021/12/13 13:04:14;;;;;;;7.30;3.67;;;10.30;99.90;;;;;;5093548;28;20635;-61
2021/12/13 13:07:13;;;;;;;7.38;3.75;;;10.20;99.90;;;;;;5092916;28;20187;-62
2021/12/13 13:09:53;;;;;;;7.28;4.35;;;10.20;99.90;;;;;;5092793;28;20184;-61
2021/12/13 13:12:32;;;;;;;7.72;5.03;;;10.20;99.90;;;;;;5092718;28;20674;-62
2021/12/13 13:15:09;;;;;;;10.02;4.82;;;10.20;99.90;;;;;;5092690;28;20199;-62
2021/12/13 13:17:38;;;;;;;7.72;4.38;;;10.20;99.90;;;;;;5092551;28;20649;-61
2021/12/13 13:20:38;;;;;;;5.40;3.70;;;10.20;99.90;;;;;;5092854;28;20236;-61
2021/12/13 13:23:10;;;;;;;11.77;4.70;;;10.20;99.90;;;;;;5092842;28;20175;-62
2021/12/13 13:25:41;;;;;;;17.23;5.47;;;10.20;99.90;;;;;;5092501;28;20198;-61
2021/12/13 13:28:28;;;;;;;9.57;4.80;;;10.20;99.90;;;;;;5090452;28;20254;-62
2021/12/13 13:31:11;;;;;;;10.52;5.63;;;10.20;99.90;;;;;;5092564;28;20168;-62
2021/12/13 13:33:41;;;;;;;10.63;5.10;;;10.10;99.90;;;;;;5092420;28;20180;-61
2021/12/13 13:36:10;;;;;;;18.52;5.80;;;10.00;99.90;;;;;;5091274;28;20541;-61
2021/12/13 13:38:37;;;;;;;12.57;5.40;;;10.00;99.90;;;;;;5092172;28;20526;-62
2021/12/13 13:41:08;;;;;;;7.22;5.03;;;9.90;99.90;;;;;;5092479;28;20176;-62
2021/12/13 13:43:37;;;;;;;10.60;4.50;;;9.90;99.90;;;;;;5092326;28;20267;-62
2021/12/13 13:46:03;;;;;;;9.63;5.28;;;9.90;99.90;;;;;;5092306;28;20171;-62